createdAt,value
2023-04-02T00:02:33.142Z,21.55
2023-04-02T00:05:51.352Z,21.62
2023-04-02T00:08:23.452Z,21.61
2023-04-02T00:10:52.616Z,21.03
2023-04-02T00:13:26.914Z,20.46
2023-04-02T00:15:58.817Z,21.73
2023-04-02T00:18:28.179Z,21.04
2023-04-02T00:21:05.154Z,21.28
2023-04-02T00:23:32.935Z,21.14
2023-04-02T00:26:00.727Z,20.92
2023-04-02T00:28:28.427Z,20.71
2023-04-02T00:31:00.587Z,20.65
2023-04-02T00:33:32.466Z,20.47
2023-04-02T00:36:00.268Z,21.24
2023-04-02T00:38:31.046Z,21.37
2023-04-02T00:41:01.558Z,21.88
2023-04-02T00:43:33.074Z,22.16
2023-04-02T00:46:05.081Z,21.75
2023-04-02T00:48:42.508Z,21.30
2023-04-02T00:51:17.223Z,20.74
2023-04-02T00:53:47.693Z,20.78
2023-04-02T00:56:20.628Z,21.13
2023-04-02T00:58:53.175Z,21.47
2023-04-02T01:01:26.276Z,21.04
2023-04-02T01:03:58.351Z,20.99
2023-04-02T01:06:31.116Z,21.16
2023-04-02T01:09:11.579Z,21.38
2023-04-02T01:12:04.055Z,21.19
2023-04-02T01:14:45.318Z,21.47
2023-04-02T01:17:31.857Z,21.11
2023-04-02T01:20:24.314Z,21.78
2023-04-02T01:22:57.930Z,21.81
2023-04-02T01:25:31.147Z,21.79
2023-04-02T01:28:07.912Z,21.75
2023-04-02T01:30:38.399Z,21.78
2023-04-02T01:33:07.809Z,21.95
2023-04-02T01:35:42.491Z,21.84
2023-04-02T01:38:15.351Z,21.85
2023-04-02T01:40:51.903Z,20.30
2023-04-02T01:43:24.817Z,21.16
2023-04-02T01:45:54.065Z,20.60
2023-04-02T01:48:27.364Z,21.50
2023-04-02T01:50:58.738Z,20.96
2023-04-02T01:53:30.440Z,21.73
2023-04-02T01:56:00.734Z,21.87
2023-04-02T01:58:31.708Z,21.73
2023-04-02T02:01:03.163Z,22.42
2023-04-02T02:03:31.570Z,22.16
2023-04-02T02:06:00.788Z,21.87
2023-04-02T02:08:38.374Z,22.08
2023-04-02T02:11:08.700Z,21.79
2023-04-02T02:13:37.312Z,22.34
2023-04-02T02:16:12.775Z,22.44
2023-04-02T02:18:40.863Z,22.03
2023-04-02T02:21:11.030Z,21.29
2023-04-02T02:23:38.735Z,22.22
2023-04-02T02:26:07.816Z,22.03
2023-04-02T02:28:40.959Z,22.15
2023-04-02T02:31:17.746Z,21.97
2023-04-02T02:33:50.358Z,22.25
2023-04-02T02:36:26.130Z,21.49
2023-04-02T02:38:59.046Z,21.59
2023-04-02T02:41:34.826Z,21.81
2023-04-02T02:44:11.251Z,21.97
2023-04-02T02:46:45.459Z,22.09
2023-04-02T02:49:17.363Z,22.50
2023-04-02T02:51:49.225Z,21.43
2023-04-02T02:54:19.801Z,21.37
2023-04-02T02:56:55.430Z,21.26
2023-04-02T02:59:24.784Z,21.30
2023-04-02T03:01:54.867Z,21.39
2023-04-02T03:04:24.201Z,20.74
2023-04-02T03:06:53.744Z,21.00
2023-04-02T03:09:31.267Z,21.06
2023-04-02T03:12:05.294Z,20.22
2023-04-02T03:14:37.930Z,21.19
2023-04-02T03:17:13.822Z,21.22
2023-04-02T03:19:48.587Z,21.30
2023-04-02T03:22:22.332Z,21.57
2023-04-02T03:24:54.973Z,20.97
2023-04-02T03:27:27.329Z,21.49
2023-04-02T03:30:05.189Z,21.25
2023-04-02T03:32:38.591Z,21.10
2023-04-02T03:35:17.820Z,21.71
2023-04-02T03:37:49.278Z,21.75
2023-04-02T03:40:21.384Z,20.70
2023-04-02T03:42:52.310Z,21.84
2023-04-02T03:45:24.122Z,21.26
2023-04-02T03:47:57.522Z,21.38
2023-04-02T03:50:27.738Z,21.56
2023-04-02T03:52:55.548Z,21.60
2023-04-02T03:55:28.784Z,21.68
2023-04-02T03:58:03.225Z,21.36
2023-04-02T04:00:37.462Z,21.28
2023-04-02T04:03:14.215Z,21.15
2023-04-02T04:05:49.622Z,21.31
2023-04-02T04:08:20.427Z,20.56
2023-04-02T04:10:53.398Z,21.11
2023-04-02T04:13:29.052Z,20.66
2023-04-02T04:16:01.156Z,20.67
2023-04-02T04:18:37.807Z,20.72
2023-04-02T04:21:15.492Z,20.82
2023-04-02T04:23:51.454Z,21.20
2023-04-02T04:26:24.692Z,21.15
2023-04-02T04:28:59.693Z,20.97
2023-04-02T04:31:34.076Z,21.46
2023-04-02T04:34:09.384Z,21.33
2023-04-02T04:36:53.945Z,21.93
2023-04-02T04:39:29.644Z,22.10
2023-04-02T04:42:00.911Z,21.88
2023-04-02T04:44:40.606Z,21.53
2023-04-02T04:47:13.083Z,21.26
2023-04-02T04:49:46.227Z,21.51
2023-04-02T04:52:20.478Z,21.29
2023-04-02T04:54:48.575Z,21.39
2023-04-02T04:57:35.980Z,21.80
2023-04-02T05:00:13.998Z,21.69
2023-04-02T05:02:47.693Z,21.97
2023-04-02T05:05:22.896Z,21.75
2023-04-02T05:07:54.005Z,22.35
2023-04-02T05:10:31.568Z,22.06
2023-04-02T05:13:05.164Z,22.37
2023-04-02T05:15:37.137Z,22.13
2023-04-02T05:18:19.015Z,21.43
2023-04-02T05:20:52.178Z,20.81
2023-04-02T05:23:24.211Z,21.26
2023-04-02T05:25:55.979Z,21.69
2023-04-02T05:28:31.056Z,22.23
2023-04-02T05:31:03.179Z,21.88
2023-04-02T05:33:33.057Z,22.01
2023-04-02T05:36:05.327Z,21.81
2023-04-02T05:38:36.440Z,20.81
2023-04-02T05:41:08.960Z,21.46
2023-04-02T05:43:40.306Z,21.56
2023-04-02T05:46:17.362Z,21.74
2023-04-02T05:48:49.169Z,21.45
2023-04-02T05:51:22.472Z,21.55
2023-04-02T05:53:56.003Z,21.55
2023-04-02T05:56:27.082Z,21.53
2023-04-02T05:59:00.828Z,21.28
2023-04-02T06:01:39.123Z,21.58
2023-04-02T06:04:15.909Z,21.58
2023-04-02T06:06:54.069Z,21.33
2023-04-02T06:09:30.189Z,21.58
2023-04-02T06:12:13.433Z,21.39
2023-04-02T06:14:41.332Z,21.14
2023-04-02T06:17:12.767Z,21.06
2023-04-02T06:19:40.739Z,21.38
2023-04-02T06:22:18.863Z,20.76
2023-04-02T06:24:48.409Z,21.07
2023-04-02T06:27:22.694Z,20.64
2023-04-02T06:29:52.872Z,20.99
2023-04-02T06:32:24.277Z,20.94
2023-04-02T06:34:52.195Z,20.95
2023-04-02T06:37:28.517Z,20.36
2023-04-02T06:39:56.419Z,20.97
2023-04-02T06:42:28.523Z,20.99
2023-04-02T06:44:56.580Z,20.80
2023-04-02T06:47:31.412Z,20.67
2023-04-02T06:50:05.794Z,20.84
2023-04-02T06:52:39.724Z,21.13
2023-04-02T06:55:28.016Z,21.70
2023-04-02T06:57:56.158Z,21.75
2023-04-02T07:00:29.865Z,21.01
2023-04-02T07:03:00.382Z,20.71
2023-04-02T07:05:28.163Z,20.67
2023-04-02T07:07:57.219Z,20.80
2023-04-02T07:10:25.219Z,20.77
2023-04-02T07:12:52.979Z,20.42
2023-04-02T07:15:20.704Z,21.75
2023-04-02T07:17:48.824Z,21.36
2023-04-02T07:20:28.510Z,21.32
2023-04-02T07:22:58.293Z,21.25
2023-04-02T07:25:28.192Z,21.23
2023-04-02T07:27:57.153Z,20.30
2023-04-02T07:30:24.950Z,19.94
2023-04-02T07:32:52.847Z,20.58
2023-04-02T07:35:20.725Z,20.69
2023-04-02T07:37:48.481Z,21.58
2023-04-02T07:40:21.966Z,21.49
2023-04-02T07:42:50.125Z,21.17
2023-04-02T07:45:18.106Z,21.30
2023-04-02T07:47:46.211Z,21.88
2023-04-02T07:50:14.244Z,21.59
2023-04-02T07:52:43.169Z,20.54
2023-04-02T07:55:12.632Z,21.30
2023-04-02T07:57:48.717Z,21.50
2023-04-02T08:00:17.517Z,21.48
2023-04-02T08:02:45.389Z,21.41
2023-04-02T08:05:13.549Z,20.78
2023-04-02T08:07:41.598Z,20.89
2023-04-02T08:10:11.229Z,20.26
2023-04-02T08:12:39.451Z,20.72
2023-04-02T08:15:11.042Z,21.41
2023-04-02T08:17:39.097Z,20.95
2023-04-02T08:20:10.480Z,21.83
2023-04-02T08:22:38.316Z,21.30
2023-04-02T08:25:07.121Z,20.60
2023-04-02T08:27:34.868Z,20.26
2023-04-02T08:30:02.584Z,20.79
2023-04-02T08:32:31.681Z,21.40
2023-04-02T08:34:59.476Z,21.68
2023-04-02T08:37:28.076Z,21.62
2023-04-02T08:39:55.789Z,21.56
2023-04-02T08:42:30.906Z,21.47
2023-04-02T08:45:24.214Z,21.71
2023-04-02T08:47:57.575Z,20.65
2023-04-02T08:50:31.592Z,21.70
2023-04-02T08:52:59.961Z,21.42
2023-04-02T08:55:37.000Z,20.94
2023-04-02T08:58:18.055Z,20.50
2023-04-02T09:00:49.862Z,20.96
2023-04-02T09:03:22.675Z,20.77
2023-04-02T09:05:53.422Z,21.38
2023-04-02T09:08:24.509Z,22.01
2023-04-02T09:10:55.932Z,21.07
2023-04-02T09:13:25.655Z,20.88
2023-04-02T09:15:59.648Z,21.10
2023-04-02T09:18:31.158Z,20.97
2023-04-02T09:20:59.034Z,21.45
2023-04-02T09:23:29.093Z,21.43
2023-04-02T09:26:04.136Z,21.32
2023-04-02T09:28:32.588Z,20.77
2023-04-02T09:31:14.690Z,20.10
2023-04-02T09:33:45.282Z,20.54
2023-04-02T09:36:35.937Z,21.04
2023-04-02T09:39:08.229Z,21.41
2023-04-02T09:41:37.452Z,20.32
2023-04-02T09:44:30.486Z,21.89
2023-04-02T09:47:03.711Z,20.67
2023-04-02T09:49:34.008Z,21.10
2023-04-02T09:52:21.645Z,20.91
2023-04-02T09:55:17.756Z,21.67
2023-04-02T09:57:46.597Z,21.16
2023-04-02T10:00:31.332Z,20.71
2023-04-02T10:03:06.397Z,20.48
2023-04-02T10:08:09.646Z,19.81
2023-04-02T10:10:42.936Z,19.91
2023-04-02T10:13:20.607Z,19.82
2023-04-02T10:15:52.088Z,20.69
2023-04-02T10:18:28.372Z,20.30
2023-04-02T10:21:00.433Z,20.71
2023-04-02T10:23:31.163Z,20.32
2023-04-02T10:26:08.879Z,20.14
2023-04-02T10:28:48.995Z,19.65
2023-04-02T10:31:25.446Z,20.28
2023-04-02T10:34:02.482Z,19.36
2023-04-02T10:36:46.756Z,20.04
2023-04-02T10:39:19.592Z,19.93
2023-04-02T10:41:54.427Z,20.45
2023-04-02T10:44:33.522Z,20.02
2023-04-02T10:47:10.423Z,21.22
2023-04-02T10:49:43.599Z,21.83
2023-04-02T10:52:21.196Z,20.58
2023-04-02T10:54:51.769Z,21.54
2023-04-02T10:57:34.752Z,22.75
2023-04-02T11:00:15.954Z,22.13
2023-04-02T11:02:50.372Z,21.53
2023-04-02T11:05:23.818Z,22.44
2023-04-02T11:08:01.888Z,21.61
2023-04-02T11:10:33.593Z,20.82
2023-04-02T11:13:08.530Z,21.30
2023-04-02T11:15:37.824Z,21.57
2023-04-02T11:18:06.128Z,21.80
2023-04-02T11:21:07.585Z,22.04
2023-04-02T11:23:57.479Z,22.83
2023-04-02T11:26:47.434Z,22.66
2023-04-02T11:29:28.169Z,21.99
2023-04-02T11:32:28.855Z,21.79
2023-04-02T11:35:25.009Z,21.70
2023-04-02T11:37:54.414Z,21.80
2023-04-02T11:40:52.892Z,21.27
2023-04-02T11:43:52.554Z,21.91
2023-04-02T11:46:40.462Z,21.25
2023-04-02T11:49:51.046Z,21.52
2023-04-02T11:52:25.836Z,21.90
2023-04-02T11:55:18.574Z,21.50
2023-04-02T11:58:05.473Z,21.95
2023-04-02T12:01:15.802Z,21.87
2023-04-02T12:04:08.689Z,22.04
2023-04-02T12:06:52.400Z,22.75
2023-04-02T12:09:23.628Z,22.63
2023-04-02T12:11:52.608Z,21.95
2023-04-02T12:14:45.629Z,21.75
2023-04-02T12:17:28.914Z,22.00
2023-04-02T12:19:58.383Z,21.41
2023-04-02T12:22:28.840Z,21.11
2023-04-02T12:25:00.002Z,21.32
2023-04-02T12:27:29.531Z,21.37
2023-04-02T12:30:13.697Z,21.44
2023-04-02T12:32:41.914Z,21.95
2023-04-02T12:35:28.169Z,22.44
2023-04-02T12:37:57.091Z,22.68
2023-04-02T12:40:26.130Z,22.54
2023-04-02T12:42:54.085Z,21.76
2023-04-02T12:45:27.270Z,22.24
2023-04-02T12:47:58.268Z,22.31
2023-04-02T12:50:26.193Z,21.82
2023-04-02T12:52:58.263Z,21.29
2023-04-02T12:55:28.197Z,21.73
2023-04-02T12:57:57.488Z,21.76
2023-04-02T13:00:33.360Z,20.80
2023-04-02T13:03:16.284Z,21.73
2023-04-02T13:05:47.828Z,21.24
2023-04-02T13:08:18.795Z,21.49
2023-04-02T13:10:47.187Z,22.25
2023-04-02T13:13:19.691Z,22.82
2023-04-02T13:16:02.586Z,23.64
2023-04-02T13:18:33.290Z,22.49
2023-04-02T13:21:03.009Z,22.22
2023-04-02T13:23:37.335Z,21.20
2023-04-02T13:26:15.828Z,21.64
2023-04-02T13:28:43.729Z,21.48
2023-04-02T13:31:16.584Z,21.81
2023-04-02T13:33:44.368Z,21.84
2023-04-02T13:36:15.141Z,21.64
2023-04-02T13:38:43.247Z,21.48
2023-04-02T13:41:22.403Z,21.26
2023-04-02T13:43:51.053Z,21.69
2023-04-02T13:46:23.408Z,21.03
2023-04-02T13:48:52.345Z,21.62
2023-04-02T13:51:22.792Z,21.21
2023-04-02T13:53:55.446Z,20.69
2023-04-02T13:56:24.608Z,21.59
2023-04-02T13:58:52.689Z,20.43
2023-04-02T14:01:25.240Z,20.69
2023-04-02T14:03:54.364Z,20.87
2023-04-02T14:06:31.861Z,21.39
2023-04-02T14:09:04.056Z,21.20
2023-04-02T14:11:44.405Z,20.53
2023-04-02T14:14:27.044Z,21.55
2023-04-02T14:17:07.650Z,21.71
2023-04-02T14:19:50.976Z,22.23
2023-04-02T14:22:34.469Z,22.47
2023-04-02T14:25:11.608Z,22.96
2023-04-02T14:27:45.978Z,22.43
2023-04-02T14:30:21.194Z,21.58
2023-04-02T14:32:59.023Z,21.47
2023-04-02T14:35:32.279Z,21.39
2023-04-02T14:38:10.060Z,21.57
2023-04-02T14:40:46.231Z,20.55
2023-04-02T14:43:21.121Z,22.15
2023-04-02T14:45:58.469Z,22.26
2023-04-02T14:48:44.591Z,21.54
2023-04-02T14:51:18.408Z,21.48
2023-04-02T14:53:53.790Z,21.23
2023-04-02T14:56:24.855Z,22.51
2023-04-02T14:59:10.132Z,23.38
2023-04-02T15:01:40.863Z,22.01
2023-04-02T15:04:15.461Z,22.00
2023-04-02T15:06:46.581Z,22.33
2023-04-02T15:09:19.913Z,21.45
2023-04-02T15:11:49.765Z,21.43
2023-04-02T15:14:22.160Z,21.29
2023-04-02T15:16:49.904Z,21.62
2023-04-02T15:19:20.242Z,21.36
2023-04-02T15:22:08.767Z,20.99
2023-04-02T15:24:46.204Z,21.94
2023-04-02T15:27:25.497Z,21.54
2023-04-02T15:30:01.353Z,20.58
2023-04-02T15:32:36.708Z,20.88
2023-04-02T15:35:18.822Z,21.33
2023-04-02T15:37:58.311Z,21.35
2023-04-02T15:40:48.938Z,21.33
2023-04-02T15:43:23.160Z,20.89
2023-04-02T15:45:59.087Z,21.72
2023-04-02T15:49:05.042Z,21.88
2023-04-02T15:52:06.548Z,20.56
2023-04-02T15:54:53.269Z,20.56
2023-04-02T15:57:41.062Z,20.80
2023-04-02T16:00:28.056Z,20.49
2023-04-02T16:03:17.660Z,21.26
2023-04-02T16:05:56.869Z,22.14
2023-04-02T16:08:39.591Z,20.58
2023-04-02T16:11:11.882Z,20.73
2023-04-02T16:13:40.888Z,21.36
2023-04-02T16:16:12.355Z,21.92
2023-04-02T16:18:47.676Z,22.10
2023-04-02T16:21:20.587Z,21.59
2023-04-02T16:23:51.105Z,21.86
2023-04-02T16:26:30.038Z,20.71
2023-04-02T16:29:10.002Z,22.14
2023-04-02T16:31:49.749Z,22.28
2023-04-02T16:34:30.365Z,21.60
2023-04-02T16:37:04.492Z,21.42
2023-04-02T16:39:39.197Z,21.79
2023-04-02T16:42:16.770Z,21.34
2023-04-02T16:44:56.453Z,20.99
2023-04-02T16:47:45.338Z,21.37
2023-04-02T16:50:20.447Z,21.26
2023-04-02T16:52:57.214Z,20.15
2023-04-02T16:55:42.149Z,21.08
2023-04-02T16:58:29.167Z,21.68
2023-04-02T17:01:01.824Z,21.04
2023-04-02T17:03:44.733Z,20.74
2023-04-02T17:06:21.217Z,20.08
2023-04-02T17:08:57.848Z,20.46
2023-04-02T17:11:37.856Z,21.21
2023-04-02T17:14:07.839Z,21.87
2023-04-02T17:16:43.027Z,21.41
2023-04-02T17:19:12.660Z,20.73
2023-04-02T17:21:43.201Z,20.67
2023-04-02T17:24:20.629Z,19.80
2023-04-02T17:26:54.376Z,20.58
2023-04-02T17:29:26.724Z,21.02
2023-04-02T17:32:00.881Z,20.95
2023-04-02T17:34:29.508Z,20.54
2023-04-02T17:37:05.653Z,20.89
2023-04-02T17:39:41.949Z,20.74
2023-04-02T17:42:21.894Z,21.07
2023-04-02T17:45:03.413Z,20.91
2023-04-02T17:47:44.451Z,21.43
2023-04-02T17:50:38.315Z,21.53
2023-04-02T17:53:19.122Z,20.87
2023-04-02T17:56:00.693Z,20.39
2023-04-02T17:58:48.067Z,20.69
2023-04-02T18:01:23.288Z,20.91
2023-04-02T18:04:05.689Z,20.19
2023-04-02T18:06:40.555Z,20.88
2023-04-02T18:09:25.145Z,20.91
2023-04-02T18:12:03.977Z,21.29
2023-04-02T18:14:47.448Z,21.00
2023-04-02T18:17:22.260Z,21.23
2023-04-02T18:19:55.125Z,20.92
2023-04-02T18:22:31.611Z,20.30
2023-04-02T18:25:33.692Z,21.06
2023-04-02T18:28:16.955Z,20.73
2023-04-02T18:30:51.175Z,19.82
2023-04-02T18:33:30.356Z,19.75
2023-04-02T18:36:06.249Z,20.04
2023-04-02T18:38:43.470Z,20.20
2023-04-02T18:41:27.828Z,19.61
2023-04-02T18:44:08.786Z,20.35
2023-04-02T18:46:44.480Z,19.71
2023-04-02T18:49:33.712Z,19.62
2023-04-02T18:52:03.384Z,20.22
2023-04-02T18:54:35.606Z,20.78
2023-04-02T18:57:12.364Z,20.35
2023-04-02T18:59:45.799Z,20.25
2023-04-02T19:02:32.647Z,20.44
2023-04-02T19:05:04.987Z,20.26
2023-04-02T19:07:36.639Z,19.48
2023-04-02T19:10:14.882Z,19.27
2023-04-02T19:12:42.580Z,19.15
2023-04-02T19:15:17.329Z,20.14
2023-04-02T19:17:54.633Z,20.13
2023-04-02T19:20:34.555Z,19.46
2023-04-02T19:23:14.975Z,18.22
2023-04-02T19:25:58.781Z,18.78
2023-04-02T19:28:32.477Z,19.32
2023-04-02T19:31:15.588Z,19.78
2023-04-02T19:33:50.360Z,19.08
2023-04-02T19:36:44.407Z,18.97
2023-04-02T19:39:35.882Z,19.52
2023-04-02T19:42:12.993Z,19.97
2023-04-02T19:44:45.739Z,19.33
2023-04-02T19:47:14.475Z,19.24
2023-04-02T19:49:43.646Z,19.17
2023-04-02T19:52:11.454Z,19.12
2023-04-02T19:54:39.664Z,19.62
2023-04-02T19:57:07.512Z,19.21
2023-04-02T19:59:35.608Z,18.81
2023-04-02T20:02:06.612Z,19.88
2023-04-02T20:04:34.533Z,19.56
2023-04-02T20:07:03.733Z,19.80
2023-04-02T20:09:31.588Z,18.53
2023-04-02T20:11:59.606Z,18.65
2023-04-02T20:14:27.329Z,18.01
2023-04-02T20:16:55.134Z,18.37
2023-04-02T20:19:25.283Z,19.17
2023-04-02T20:21:53.066Z,19.09
2023-04-02T20:24:22.136Z,18.97
2023-04-02T20:26:49.827Z,19.12
2023-04-02T20:29:17.574Z,19.92
2023-04-02T20:31:45.406Z,19.66
2023-04-02T20:34:13.411Z,19.29
2023-04-02T20:36:41.617Z,19.58
2023-04-02T20:39:10.688Z,19.37
2023-04-02T20:41:39.769Z,19.09
2023-04-02T20:44:07.551Z,19.59
2023-04-02T20:46:35.291Z,18.80
2023-04-02T20:49:03.187Z,19.65
2023-04-02T20:51:31.001Z,19.53
2023-04-02T20:53:58.952Z,19.93
2023-04-02T20:56:26.801Z,20.03
2023-04-02T20:58:55.993Z,19.86
2023-04-02T21:01:25.214Z,19.71
2023-04-02T21:03:56.797Z,19.75
2023-04-02T21:06:26.587Z,19.06
2023-04-02T21:08:54.767Z,19.86
2023-04-02T21:11:23.129Z,19.84
2023-04-02T21:13:51.759Z,19.59
2023-04-02T21:16:22.534Z,19.73
2023-04-02T21:18:52.757Z,19.59
2023-04-02T21:21:21.617Z,19.22
2023-04-02T21:23:54.591Z,19.55
2023-04-02T21:26:22.510Z,19.37
2023-04-02T21:28:50.365Z,19.70
2023-04-02T21:31:21.143Z,19.67
2023-04-02T21:33:50.845Z,19.51
2023-04-02T21:36:20.686Z,19.31
2023-04-02T21:38:50.566Z,19.33
2023-04-02T21:41:21.302Z,19.10
2023-04-02T21:43:49.647Z,18.83
2023-04-02T21:46:18.351Z,18.95
2023-04-02T21:48:48.256Z,19.29
2023-04-02T21:51:18.088Z,19.46
2023-04-02T21:53:46.659Z,19.64
2023-04-02T21:56:16.621Z,19.45
2023-04-02T21:58:45.002Z,19.27
2023-04-02T22:01:26.064Z,18.29
2023-04-02T22:03:56.954Z,18.79
2023-04-02T22:06:26.325Z,18.62
2023-04-02T22:08:56.192Z,19.10
2023-04-02T22:11:25.991Z,19.22
2023-04-02T22:13:53.981Z,19.25
2023-04-02T22:16:23.417Z,19.12
2023-04-02T22:18:53.119Z,19.48
2023-04-02T22:21:22.739Z,19.38
2023-04-02T22:23:51.165Z,19.31
2023-04-02T22:26:20.833Z,19.50
2023-04-02T22:28:48.759Z,19.19
2023-04-02T22:31:19.000Z,18.99
2023-04-02T22:33:48.096Z,18.98
2023-04-02T22:36:17.442Z,19.01
2023-04-02T22:38:46.965Z,18.73
2023-04-02T22:41:16.203Z,19.07
2023-04-02T22:43:45.518Z,19.16
2023-04-02T22:46:15.367Z,19.07
2023-04-02T22:48:43.864Z,18.82
2023-04-02T22:51:14.117Z,18.88
2023-04-02T22:53:43.045Z,18.53
2023-04-02T22:56:14.477Z,18.36
2023-04-02T22:58:42.735Z,18.78
2023-04-02T23:01:14.835Z,18.61
2023-04-02T23:03:42.619Z,18.47
2023-04-02T23:06:12.982Z,18.16
2023-04-02T23:08:40.978Z,18.35
2023-04-02T23:11:11.124Z,18.13
2023-04-02T23:13:40.864Z,18.45
2023-04-02T23:16:11.791Z,18.25
2023-04-02T23:18:40.702Z,18.29
2023-04-02T23:21:09.042Z,17.98
2023-04-02T23:23:36.948Z,17.60
2023-04-02T23:26:07.063Z,17.34
2023-04-02T23:28:35.979Z,17.38
2023-04-02T23:31:06.900Z,17.29
2023-04-02T23:33:34.989Z,17.39
2023-04-02T23:36:09.031Z,17.25
2023-04-02T23:38:37.122Z,17.30
2023-04-02T23:41:04.912Z,16.83
2023-04-02T23:43:32.733Z,16.76
2023-04-02T23:46:00.484Z,16.80
2023-04-02T23:48:29.633Z,16.73
2023-04-02T23:50:57.351Z,17.24
2023-04-02T23:53:25.290Z,17.20
2023-04-02T23:55:53.065Z,16.67
2023-04-02T23:58:20.896Z,16.48
